createdAt,value
2019-04-29T00:01:42.237Z,43.91
2019-04-29T00:04:14.033Z,44.03
2019-04-29T00:06:45.657Z,44.12
2019-04-29T00:09:19.497Z,44.37
2019-04-29T00:11:51.032Z,44.42
2019-04-29T00:14:22.551Z,44.62
2019-04-29T00:16:58.855Z,45.20
2019-04-29T00:19:32.186Z,45.01
2019-04-29T00:22:03.960Z,45.29
2019-04-29T00:24:35.310Z,45.53
2019-04-29T00:27:09.180Z,46.61
2019-04-29T00:29:40.614Z,46.51
2019-04-29T00:32:12.621Z,46.35
2019-04-29T00:34:44.042Z,46.12
2019-04-29T00:37:32.873Z,46.26
2019-04-29T00:40:23.462Z,46.40
2019-04-29T00:43:13.811Z,46.53
2019-04-29T00:45:50.483Z,46.29
2019-04-29T00:48:30.083Z,45.57
2019-04-29T00:51:04.543Z,45.83
2019-04-29T00:53:36.305Z,45.46
2019-04-29T00:56:12.813Z,45.52
2019-04-29T00:58:45.259Z,45.37
2019-04-29T01:01:18.462Z,45.21
2019-04-29T01:03:50.405Z,45.32
2019-04-29T01:06:22.066Z,45.46
2019-04-29T01:08:53.831Z,45.83
2019-04-29T01:11:25.681Z,45.57
2019-04-29T01:13:57.313Z,45.80
2019-04-29T01:16:28.932Z,45.36
2019-04-29T01:19:03.777Z,45.58
2019-04-29T01:21:34.459Z,45.27
2019-04-29T01:24:06.171Z,45.22
2019-04-29T01:26:58.072Z,45.40
2019-04-29T01:29:39.201Z,45.21
2019-04-29T01:32:11.728Z,45.34
2019-04-29T01:34:44.952Z,45.33
2019-04-29T01:37:16.658Z,45.66
2019-04-29T01:39:55.985Z,45.70
2019-04-29T01:42:32.465Z,45.95
2019-04-29T01:45:04.332Z,46.15
2019-04-29T01:47:35.654Z,46.41
2019-04-29T01:50:07.647Z,46.52
2019-04-29T01:52:39.203Z,46.84
2019-04-29T01:55:11.038Z,46.39
2019-04-29T01:57:42.719Z,46.15
2019-04-29T02:00:15.708Z,46.45
2019-04-29T02:02:47.362Z,46.82
2019-04-29T02:05:19.036Z,47.07
2019-04-29T02:07:50.686Z,46.64
2019-04-29T02:10:24.028Z,46.80
2019-04-29T02:12:55.950Z,46.79
2019-04-29T02:15:27.686Z,46.81
2019-04-29T02:17:59.317Z,47.02
2019-04-29T02:20:30.995Z,46.78
2019-04-29T02:23:04.260Z,46.97
2019-04-29T02:25:40.587Z,47.22
2019-04-29T02:28:12.125Z,47.89
2019-04-29T02:30:46.934Z,47.71
2019-04-29T02:33:18.404Z,47.87
2019-04-29T02:35:51.889Z,47.85
2019-04-29T02:38:38.414Z,48.00
2019-04-29T02:41:11.903Z,47.73
2019-04-29T02:43:47.851Z,47.93
2019-04-29T02:46:19.649Z,47.92
2019-04-29T02:48:51.394Z,47.46
2019-04-29T02:51:41.011Z,47.96
2019-04-29T02:54:13.152Z,47.91
2019-04-29T02:56:46.263Z,47.99
2019-04-29T02:59:29.388Z,47.72
2019-04-29T03:02:15.483Z,47.76
2019-04-29T03:04:52.247Z,48.10
2019-04-29T03:07:24.343Z,48.02
2019-04-29T03:09:56.471Z,48.61
2019-04-29T03:12:28.113Z,48.67
2019-04-29T03:14:59.974Z,47.96
2019-04-29T03:17:32.192Z,48.35
2019-04-29T03:20:12.386Z,48.40
2019-04-29T03:22:46.031Z,48.76
2019-04-29T03:25:17.555Z,48.49
2019-04-29T03:27:50.359Z,48.29
2019-04-29T03:30:22.217Z,48.08
2019-04-29T03:32:53.923Z,48.57
2019-04-29T03:35:26.686Z,48.28
2019-04-29T03:37:59.262Z,48.37
2019-04-29T03:40:30.811Z,48.36
2019-04-29T03:43:02.842Z,48.21
2019-04-29T03:45:34.501Z,48.31
2019-04-29T03:48:06.443Z,48.17
2019-04-29T03:50:38.362Z,48.17
2019-04-29T03:53:09.846Z,48.21
2019-04-29T03:55:42.874Z,48.30
2019-04-29T03:58:14.593Z,48.02
2019-04-29T04:00:47.955Z,48.24
2019-04-29T04:03:24.096Z,48.46
2019-04-29T04:06:01.152Z,48.16
2019-04-29T04:08:34.803Z,48.20
2019-04-29T04:11:06.637Z,47.88
2019-04-29T04:13:38.121Z,47.89
2019-04-29T04:16:11.706Z,48.34
2019-04-29T04:18:43.553Z,47.99
2019-04-29T04:21:17.349Z,48.07
2019-04-29T04:23:49.087Z,48.18
2019-04-29T04:26:21.879Z,47.19
2019-04-29T04:28:53.813Z,46.87
2019-04-29T04:31:25.550Z,46.45
2019-04-29T04:33:59.020Z,47.12
2019-04-29T04:36:30.852Z,46.44
2019-04-29T04:39:02.991Z,45.80
2019-04-29T04:41:36.510Z,45.63
2019-04-29T04:44:08.428Z,45.41
2019-04-29T04:46:40.220Z,45.22
2019-04-29T04:49:15.605Z,45.15
2019-04-29T04:51:45.188Z,43.92
2019-04-29T04:54:17.190Z,43.92
2019-04-29T04:56:49.018Z,43.73
2019-04-29T04:59:20.909Z,43.89
2019-04-29T05:01:52.593Z,43.05
2019-04-29T05:04:25.571Z,43.18
2019-04-29T05:06:58.225Z,43.10
2019-04-29T05:09:30.159Z,42.93
2019-04-29T05:12:01.853Z,42.19
2019-04-29T05:14:33.465Z,42.64
2019-04-29T05:17:05.308Z,42.59
2019-04-29T05:19:38.151Z,44.07
2019-04-29T05:22:10.435Z,42.66
2019-04-29T05:24:42.107Z,42.71
2019-04-29T05:27:14.057Z,42.39
2019-04-29T05:29:45.815Z,42.58
2019-04-29T05:32:17.714Z,44.24
2019-04-29T05:34:51.255Z,44.51
2019-04-29T05:37:25.718Z,44.04
2019-04-29T05:39:58.094Z,43.77
2019-04-29T05:42:30.245Z,43.70
2019-04-29T05:45:09.883Z,44.26
2019-04-29T05:47:44.576Z,43.94
2019-04-29T05:50:35.322Z,43.70
2019-04-29T05:53:11.439Z,42.33
2019-04-29T05:55:43.341Z,42.25
2019-04-29T05:58:16.154Z,42.21
2019-04-29T06:01:01.975Z,41.98
2019-04-29T06:03:38.036Z,41.71
2019-04-29T06:06:12.205Z,41.67
2019-04-29T06:08:42.953Z,40.99
2019-04-29T06:11:17.686Z,40.26
2019-04-29T06:13:51.183Z,40.37
2019-04-29T06:16:23.215Z,40.78
2019-04-29T06:19:00.409Z,41.32
2019-04-29T06:21:28.794Z,41.34
2019-04-29T06:24:04.475Z,40.88
2019-04-29T06:26:34.145Z,40.72
2019-04-29T06:29:06.245Z,41.71
2019-04-29T06:31:38.582Z,41.59
2019-04-29T06:34:10.662Z,41.67
2019-04-29T06:36:43.557Z,42.92
2019-04-29T06:39:15.779Z,42.18
2019-04-29T06:41:47.688Z,41.13
2019-04-29T06:44:19.432Z,42.08
2019-04-29T06:46:54.516Z,40.14
2019-04-29T06:49:25.114Z,40.82
2019-04-29T06:51:58.492Z,41.90
2019-04-29T06:54:30.353Z,41.43
2019-04-29T06:57:02.255Z,41.33
2019-04-29T06:59:34.207Z,42.51
2019-04-29T07:02:09.353Z,45.16
2019-04-29T07:04:41.610Z,46.02
2019-04-29T07:07:14.872Z,46.83
2019-04-29T07:09:46.833Z,48.13
2019-04-29T07:12:19.550Z,48.85
2019-04-29T07:14:51.373Z,48.23
2019-04-29T07:17:24.986Z,48.84
2019-04-29T07:20:02.078Z,48.06
2019-04-29T07:22:43.255Z,48.68
2019-04-29T07:25:15.920Z,48.29
2019-04-29T07:27:49.176Z,48.48
2019-04-29T07:30:21.256Z,48.96
2019-04-29T07:32:54.103Z,49.71
2019-04-29T07:35:26.050Z,49.81
2019-04-29T07:37:58.027Z,50.34
2019-04-29T07:40:30.174Z,51.13
2019-04-29T07:43:02.853Z,50.70
2019-04-29T07:45:44.003Z,50.66
2019-04-29T07:48:10.584Z,51.21
2019-04-29T07:50:45.513Z,50.81
2019-04-29T07:53:20.942Z,51.19
2019-04-29T07:55:52.440Z,51.95
2019-04-29T07:58:27.389Z,51.34
2019-04-29T08:00:57.975Z,51.99
2019-04-29T08:03:31.870Z,51.51
2019-04-29T08:06:04.908Z,50.87
2019-04-29T08:08:38.830Z,50.83
2019-04-29T08:11:12.747Z,50.12
2019-04-29T08:13:45.781Z,47.24
2019-04-29T08:16:19.238Z,44.31
2019-04-29T08:18:53.604Z,44.36
2019-04-29T08:21:24.586Z,43.58
2019-04-29T08:23:58.600Z,43.18
2019-04-29T08:26:33.581Z,43.28
2019-04-29T08:29:04.641Z,43.01
2019-04-29T08:31:38.926Z,42.80
2019-04-29T08:34:12.285Z,41.99
2019-04-29T08:36:50.513Z,41.67
2019-04-29T08:39:25.199Z,40.05
2019-04-29T08:42:03.740Z,40.83
2019-04-29T08:44:43.119Z,41.71
2019-04-29T08:47:23.678Z,41.75
2019-04-29T08:49:54.532Z,42.69
2019-04-29T08:52:26.691Z,42.76
2019-04-29T08:55:04.721Z,43.34
2019-04-29T08:57:45.436Z,44.28
2019-04-29T09:00:18.862Z,45.08
2019-04-29T09:02:50.537Z,44.81
2019-04-29T09:05:24.017Z,45.18
2019-04-29T09:07:57.375Z,45.23
2019-04-29T09:10:33.042Z,45.74
2019-04-29T09:13:05.341Z,45.84
2019-04-29T09:15:37.124Z,46.77
2019-04-29T09:18:11.298Z,47.87
2019-04-29T09:20:43.200Z,48.17
2019-04-29T09:23:19.821Z,47.71
2019-04-29T09:26:02.552Z,48.47
2019-04-29T09:28:29.873Z,47.99
2019-04-29T09:31:01.883Z,47.83
2019-04-29T09:33:35.759Z,48.31
2019-04-29T09:36:09.668Z,49.64
2019-04-29T09:38:41.414Z,48.71
2019-04-29T09:41:35.035Z,49.25
2019-04-29T09:44:09.331Z,49.64
2019-04-29T09:46:40.941Z,49.18
2019-04-29T09:49:14.653Z,50.60
2019-04-29T09:51:47.118Z,51.34
2019-04-29T09:54:20.203Z,53.31
2019-04-29T09:56:52.066Z,54.74
2019-04-29T09:59:32.295Z,55.33
2019-04-29T10:02:12.927Z,56.19
2019-04-29T10:04:56.823Z,58.16
2019-04-29T10:07:26.957Z,59.07
2019-04-29T10:10:06.941Z,61.02
2019-04-29T10:12:38.905Z,61.14
2019-04-29T10:15:39.875Z,61.83
2019-04-29T10:21:05.812Z,65.98
2019-04-29T10:23:54.351Z,64.29
2019-04-29T10:26:29.069Z,66.21
2019-04-29T10:29:03.545Z,66.52
2019-04-29T10:31:38.236Z,67.36
2019-04-29T10:34:13.839Z,68.30
2019-04-29T10:36:52.214Z,68.67
2019-04-29T10:39:42.416Z,69.23
2019-04-29T10:42:42.102Z,68.99
2019-04-29T10:45:36.187Z,68.69
2019-04-29T10:48:19.083Z,69.81
2019-04-29T10:50:54.026Z,68.75
2019-04-29T10:53:28.805Z,68.85
2019-04-29T10:56:05.630Z,68.67
2019-04-29T10:58:45.423Z,68.65
2019-04-29T11:02:09.136Z,68.74
2019-04-29T11:04:47.019Z,67.82
2019-04-29T11:07:39.298Z,67.00
2019-04-29T11:10:25.345Z,65.98
2019-04-29T11:13:04.421Z,66.31
2019-04-29T11:15:49.522Z,66.28
2019-04-29T11:18:24.903Z,65.84
2019-04-29T11:21:01.096Z,66.89
2019-04-29T11:23:43.569Z,67.41
2019-04-29T11:26:37.527Z,67.42
2019-04-29T11:29:29.162Z,67.01
2019-04-29T11:32:04.874Z,68.12
2019-04-29T11:34:48.383Z,67.35
2019-04-29T11:37:24.243Z,68.45
2019-04-29T11:39:58.707Z,69.45
2019-04-29T11:42:36.783Z,70.41
2019-04-29T11:45:15.316Z,70.17
2019-04-29T11:47:50.858Z,70.67
2019-04-29T11:50:45.250Z,70.58
2019-04-29T11:53:18.019Z,71.68
2019-04-29T11:55:52.517Z,71.94
2019-04-29T11:58:30.325Z,72.19
2019-04-29T12:01:37.934Z,72.62
2019-04-29T12:04:16.549Z,73.41
2019-04-29T12:06:51.360Z,74.24
2019-04-29T12:09:25.450Z,74.65
2019-04-29T12:11:57.461Z,73.83
2019-04-29T12:14:41.422Z,74.97
2019-04-29T12:17:15.842Z,74.54
2019-04-29T12:19:48.975Z,74.38
2019-04-29T12:22:30.330Z,74.25
2019-04-29T12:24:54.207Z,74.13
2019-04-29T12:27:29.154Z,73.37
2019-04-29T12:30:01.735Z,73.30
2019-04-29T12:32:36.087Z,73.69
2019-04-29T12:35:16.713Z,72.83
2019-04-29T12:37:48.565Z,73.02
2019-04-29T12:40:39.171Z,73.41
2019-04-29T12:43:17.736Z,73.38
2019-04-29T12:45:57.214Z,73.61
2019-04-29T12:48:30.887Z,73.40
2019-04-29T12:51:03.832Z,74.04
2019-04-29T12:53:35.666Z,73.67
2019-04-29T12:56:11.461Z,73.01
2019-04-29T12:58:41.021Z,73.22
2019-04-29T13:01:50.254Z,73.23
2019-04-29T13:04:10.856Z,72.61
2019-04-29T13:06:48.161Z,71.32
2019-04-29T13:09:30.701Z,71.63
2019-04-29T13:12:17.677Z,70.44
2019-04-29T13:14:39.130Z,70.06
2019-04-29T13:17:14.743Z,69.95
2019-04-29T13:20:01.553Z,69.15
2019-04-29T13:22:27.068Z,69.44
2019-04-29T13:24:58.992Z,69.97
2019-04-29T13:27:30.553Z,69.82
2019-04-29T13:30:07.246Z,69.47
2019-04-29T13:32:37.309Z,70.14
2019-04-29T13:35:12.226Z,69.25
2019-04-29T13:37:43.358Z,66.57
2019-04-29T13:40:15.330Z,64.87
2019-04-29T13:42:50.988Z,64.83
2019-04-29T13:45:36.318Z,65.18
2019-04-29T13:48:18.255Z,66.19
2019-04-29T13:50:53.196Z,66.90
2019-04-29T13:53:25.023Z,68.60
2019-04-29T13:56:10.981Z,69.93
2019-04-29T13:58:36.598Z,69.65
2019-04-29T14:01:23.872Z,68.85
2019-04-29T14:03:51.408Z,70.50
2019-04-29T14:06:23.205Z,70.88
2019-04-29T14:08:54.769Z,71.73
2019-04-29T14:11:27.713Z,71.58
2019-04-29T14:13:59.396Z,71.99
2019-04-29T14:16:32.488Z,72.22
2019-04-29T14:19:04.157Z,72.90
2019-04-29T14:21:36.211Z,73.52
2019-04-29T14:24:08.785Z,73.50
2019-04-29T14:26:44.936Z,73.55
2019-04-29T14:29:15.744Z,73.62
2019-04-29T14:31:49.082Z,73.70
2019-04-29T14:34:22.433Z,74.39
2019-04-29T14:37:18.440Z,73.76
2019-04-29T14:39:37.415Z,73.75
2019-04-29T14:42:17.110Z,73.76
2019-04-29T14:44:50.487Z,74.40
2019-04-29T14:47:25.762Z,75.10
2019-04-29T14:50:02.059Z,75.91
2019-04-29T14:52:35.402Z,75.65
2019-04-29T14:55:08.052Z,76.30
2019-04-29T14:57:40.947Z,76.31
2019-04-29T15:00:19.763Z,76.36
2019-04-29T15:02:55.789Z,76.61
2019-04-29T15:05:25.570Z,76.37
2019-04-29T15:07:57.380Z,76.67
2019-04-29T15:10:31.132Z,76.46
2019-04-29T15:13:20.807Z,77.24
2019-04-29T15:16:04.362Z,77.74
2019-04-29T15:18:47.273Z,78.22
2019-04-29T15:21:32.335Z,78.48
2019-04-29T15:23:57.800Z,79.13
2019-04-29T15:26:30.885Z,78.55
2019-04-29T15:29:03.343Z,78.19
2019-04-29T15:31:35.205Z,78.51
2019-04-29T15:34:08.812Z,78.58
2019-04-29T15:36:42.038Z,78.57
2019-04-29T15:39:14.605Z,78.57
2019-04-29T15:41:46.657Z,78.98
2019-04-29T15:44:20.402Z,78.83
2019-04-29T15:46:52.103Z,79.01
2019-04-29T15:49:24.666Z,79.25
2019-04-29T15:51:57.400Z,79.68
2019-04-29T15:54:32.271Z,79.53
2019-04-29T15:57:09.127Z,80.01
2019-04-29T15:59:48.837Z,79.11
2019-04-29T16:02:14.586Z,79.29
2019-04-29T16:05:00.113Z,79.66
2019-04-29T16:07:51.530Z,79.71
2019-04-29T16:10:34.457Z,79.80
2019-04-29T16:13:10.786Z,80.12
2019-04-29T16:15:47.077Z,79.87
2019-04-29T16:18:19.903Z,79.52
2019-04-29T16:20:54.047Z,79.93
2019-04-29T16:23:25.196Z,79.82
2019-04-29T16:25:57.126Z,80.47
2019-04-29T16:28:31.371Z,80.49
2019-04-29T16:31:05.049Z,80.84
2019-04-29T16:33:36.835Z,81.01
2019-04-29T16:36:08.557Z,81.44
2019-04-29T16:38:40.402Z,81.44
2019-04-29T16:41:27.367Z,81.65
2019-04-29T16:44:01.201Z,81.72
2019-04-29T16:46:37.511Z,81.79
2019-04-29T16:49:07.614Z,82.07
2019-04-29T16:51:40.765Z,81.63
2019-04-29T16:54:19.411Z,81.73
2019-04-29T16:56:46.047Z,82.16
2019-04-29T16:59:18.002Z,82.32
2019-04-29T17:01:49.945Z,82.26
2019-04-29T17:04:21.976Z,82.12
2019-04-29T17:07:11.855Z,81.99
2019-04-29T17:09:31.722Z,82.25
2019-04-29T17:12:03.853Z,82.56
2019-04-29T17:15:02.440Z,82.45
2019-04-29T17:17:15.932Z,82.41
2019-04-29T17:19:48.277Z,82.81
2019-04-29T17:22:25.919Z,82.89
2019-04-29T17:24:53.839Z,82.64
2019-04-29T17:27:45.360Z,82.87
2019-04-29T17:30:38.322Z,83.07
2019-04-29T17:33:25.809Z,83.18
2019-04-29T17:35:51.306Z,83.20
2019-04-29T17:38:24.577Z,82.98
2019-04-29T17:40:56.486Z,82.86
2019-04-29T17:43:42.947Z,82.57
2019-04-29T17:46:30.980Z,82.81
2019-04-29T17:49:05.274Z,82.79
2019-04-29T17:51:38.567Z,82.60
2019-04-29T17:54:18.447Z,82.99
2019-04-29T17:57:08.611Z,83.11
2019-04-29T17:59:32.494Z,83.28
2019-04-29T18:02:08.982Z,83.29
2019-04-29T18:04:45.598Z,83.19
2019-04-29T18:07:25.245Z,82.90
2019-04-29T18:10:05.097Z,83.08
2019-04-29T18:12:40.923Z,82.64
2019-04-29T18:15:17.679Z,82.62
2019-04-29T18:17:49.293Z,82.99
2019-04-29T18:20:30.801Z,82.83
2019-04-29T18:23:19.124Z,83.01
2019-04-29T18:25:52.444Z,82.89
2019-04-29T18:28:25.950Z,83.40
2019-04-29T18:31:00.236Z,83.72
2019-04-29T18:33:32.670Z,83.84
2019-04-29T18:36:06.953Z,83.83
2019-04-29T18:38:42.441Z,83.71
2019-04-29T18:41:16.377Z,84.07
2019-04-29T18:43:46.625Z,84.18
2019-04-29T18:46:18.730Z,84.25
2019-04-29T18:48:50.340Z,83.78
2019-04-29T18:51:25.686Z,83.50
2019-04-29T18:53:55.608Z,83.75
2019-04-29T18:56:27.617Z,83.80
2019-04-29T18:59:00.921Z,83.36
2019-04-29T19:01:34.928Z,83.69
2019-04-29T19:04:25.469Z,83.86
2019-04-29T19:07:02.133Z,83.42
2019-04-29T19:09:35.758Z,83.74
2019-04-29T19:12:14.534Z,83.91
2019-04-29T19:14:59.745Z,83.84
2019-04-29T19:17:30.764Z,83.89
2019-04-29T19:20:01.449Z,83.86
2019-04-29T19:22:33.413Z,83.87
2019-04-29T19:25:08.688Z,83.79
2019-04-29T19:27:40.813Z,84.36
2019-04-29T19:30:20.682Z,84.33
2019-04-29T19:32:48.646Z,84.39
2019-04-29T19:35:29.510Z,84.33
2019-04-29T19:38:00.249Z,84.52
2019-04-29T19:40:41.199Z,84.32
2019-04-29T19:43:10.230Z,84.49
2019-04-29T19:45:44.739Z,84.36
2019-04-29T19:48:16.277Z,84.33
2019-04-29T19:50:59.642Z,84.27
2019-04-29T19:53:25.163Z,83.86
2019-04-29T19:56:04.154Z,84.50
2019-04-29T19:58:32.209Z,84.63
2019-04-29T20:01:11.629Z,84.22
2019-04-29T20:03:49.488Z,84.37
2019-04-29T20:06:25.759Z,84.29
2019-04-29T20:08:57.142Z,84.59
2019-04-29T20:11:32.736Z,84.65
2019-04-29T20:14:05.446Z,84.69
2019-04-29T20:16:59.399Z,85.03
2019-04-29T20:19:45.618Z,84.85
2019-04-29T20:22:16.905Z,85.02
2019-04-29T20:24:50.751Z,84.98
2019-04-29T20:27:26.146Z,84.87
2019-04-29T20:29:56.789Z,84.71
2019-04-29T20:32:31.863Z,84.86
2019-04-29T20:35:07.058Z,84.95
2019-04-29T20:37:36.444Z,85.01
2019-04-29T20:40:09.007Z,85.23
2019-04-29T20:42:45.242Z,85.34
2019-04-29T20:45:20.153Z,85.30
2019-04-29T20:47:52.687Z,85.37
2019-04-29T20:50:31.067Z,85.44
2019-04-29T20:53:05.773Z,85.30
2019-04-29T20:55:39.798Z,85.28
2019-04-29T20:58:15.680Z,85.48
2019-04-29T21:00:47.699Z,85.62
2019-04-29T21:03:27.836Z,85.40
2019-04-29T21:06:02.720Z,85.41
2019-04-29T21:08:31.322Z,85.62
2019-04-29T21:11:05.757Z,85.87
2019-04-29T21:13:42.207Z,86.07
2019-04-29T21:16:16.859Z,86.21
2019-04-29T21:18:58.910Z,86.42
2019-04-29T21:21:31.692Z,86.35
2019-04-29T21:24:12.920Z,86.44
2019-04-29T21:26:44.431Z,86.49
2019-04-29T21:29:19.357Z,86.51
2019-04-29T21:31:58.476Z,86.70
2019-04-29T21:34:29.670Z,86.81
2019-04-29T21:37:06.586Z,86.84
2019-04-29T21:39:39.110Z,86.96
2019-04-29T21:42:16.262Z,86.85
2019-04-29T21:44:48.781Z,87.23
2019-04-29T21:47:22.284Z,87.44
2019-04-29T21:49:56.270Z,87.86
2019-04-29T21:52:27.267Z,87.77
2019-04-29T21:54:58.974Z,88.10
2019-04-29T21:57:30.791Z,88.41
2019-04-29T22:00:03.420Z,88.64
2019-04-29T22:02:36.738Z,88.64
2019-04-29T22:05:13.744Z,88.92
2019-04-29T22:07:44.691Z,89.12
2019-04-29T22:10:22.703Z,89.19
2019-04-29T22:12:50.963Z,89.32
2019-04-29T22:15:30.700Z,89.68
2019-04-29T22:18:01.311Z,89.91
2019-04-29T22:20:37.363Z,90.05
2019-04-29T22:23:08.351Z,90.03
2019-04-29T22:25:41.071Z,90.15
2019-04-29T22:28:16.075Z,90.13
2019-04-29T22:30:49.819Z,90.10
2019-04-29T22:33:20.068Z,90.04
2019-04-29T22:35:52.230Z,90.12
2019-04-29T22:38:25.007Z,90.24
2019-04-29T22:40:58.619Z,90.04
2019-04-29T22:43:50.188Z,90.03
2019-04-29T22:46:21.907Z,90.21
2019-04-29T22:48:53.759Z,90.05
2019-04-29T22:51:27.193Z,89.70
2019-04-29T22:53:58.919Z,89.67
2019-04-29T22:56:30.941Z,89.51
2019-04-29T22:59:02.935Z,89.19
2019-04-29T23:01:36.362Z,89.25
2019-04-29T23:04:09.608Z,89.59
2019-04-29T23:06:46.597Z,89.77
2019-04-29T23:09:15.371Z,89.81
2019-04-29T23:11:47.554Z,89.73
2019-04-29T23:14:19.321Z,89.57
2019-04-29T23:16:52.867Z,89.53
2019-04-29T23:19:26.054Z,89.60
2019-04-29T23:22:16.973Z,89.52
2019-04-29T23:24:59.143Z,89.53
2019-04-29T23:27:30.969Z,89.30
2019-04-29T23:30:02.867Z,89.29
2019-04-29T23:32:39.545Z,89.32
2019-04-29T23:35:10.034Z,89.52
2019-04-29T23:37:41.939Z,89.66
2019-04-29T23:40:14.069Z,89.64
2019-04-29T23:42:47.985Z,89.66
2019-04-29T23:45:21.303Z,89.67
2019-04-29T23:47:55.409Z,89.67
2019-04-29T23:50:28.137Z,89.40
2019-04-29T23:52:59.673Z,89.54
2019-04-29T23:55:31.375Z,89.62
2019-04-29T23:58:07.793Z,89.67
